Amity Harbor, New York
Current Conditions -  °F | °C
As of 3:53 PM on Tuesday 27 Jan 2015 (Local Time) from KFRG Reporting Station
Unknown Precip Unknown Precip  
Wind Chill: 10°   Ceiling: Unl
Heat Index: 25°   Visibility: 3mi
Dew Point: 13°   Wind: 23mph
Humidity: 60%   Direction: 340°NNW
Pressure: 29.64"   Gusts: 32mph
Location:  40.6858°N, 73.4152°W
Report Text: KFRG 272053Z 34020G28KT 3SM UP CLR M04/M11 A2964 RMK AO2 PK WND 33030/2019 UPB48 SLP037 P0000 60000 T10391106 53001 $
Loading
Personal Weather Stations






























Interactive Weather Map New forecast layout! Learn more

10-Day Weather Forecast

Advertisements
Track Severe Weather on mobile